METAR Data
IDs: Format: Raw Decoded Include TAF

Data at: 2148 UTC 29 May 2020

METAR for:KTNU (Newton Muni, IA, US)
Text:KTNU 292135Z AUTO 32017KT 10SM CLR 20/09 A3013 RMK A01
Temperature: 20.0°C ( 68°F)
Dewpoint: 9.0°C ( 48°F) [RH = 49%]
Pressure (altimeter):30.13 inches Hg (1020.4 mb)
Winds:from the NW (320 degrees) at 20 MPH (17 knots; 8.7 m/s)
Visibility:10 or more sm (16+ km)
Ceiling:at least 12,000 feet AGL
Clouds:sky clear below 12,000 feet AGL
QC Flag:automated observation with no human augmentation